WWA2482 KLGA-KGPI
Flight info
| Callsign | WWA2482 |
|---|---|
| Flight time | N/A |
| Altitude | 32000 |
| Route | COATE Q436 RAAKK DKK KP03O KP12I/N0459F340 KP15E KP15A KU15U CHOTE SKOTT GOGGS |
| Aircraft | B738/M-SDE2E3FGHIRWXY/LB1 |
Departure
| Time | N/A |
|---|---|
| Airport | LaGuardia Airport (KLGA) |
Arrival
| Time | 2026-04-19 04:29 |
|---|---|
| Airport | Glacier Park International Airport (KGPI) |
| Time | Latitude | Longitude | Altitude | Speed | Heading |
|---|---|---|---|---|---|
| 2026-04-19 04:12 | 47.68916 | -112.93256 | 36106 ft | 420 kts | 278° |
| 2026-04-19 04:12 | 47.69030 | -112.97593 | 36116 ft | 420 kts | 278° |
| 2026-04-19 04:12 | 47.69241 | -113.06069 | 36103 ft | 397 kts | 278° |
| 2026-04-19 04:13 | 47.69340 | -113.10100 | 36086 ft | 384 kts | 278° |
| 2026-04-19 04:13 | 47.69434 | -113.13934 | 36117 ft | 369 kts | 278° |
| 2026-04-19 04:13 | 47.69522 | -113.17677 | 36077 ft | 357 kts | 279° |
| 2026-04-19 04:13 | 47.69614 | -113.21374 | 35447 ft | 361 kts | 279° |
| 2026-04-19 04:14 | 47.69712 | -113.25140 | 34719 ft | 368 kts | 279° |
| 2026-04-19 04:14 | 47.69812 | -113.28988 | 34150 ft | 382 kts | 279° |
| 2026-04-19 04:14 | 47.69919 | -113.33044 | 33453 ft | 404 kts | 278° |
| 2026-04-19 04:14 | 47.70023 | -113.37270 | 32874 ft | 412 kts | 278° |
| 2026-04-19 04:15 | 47.70116 | -113.41523 | 32200 ft | 411 kts | 277° |
| 2026-04-19 04:15 | 47.70205 | -113.45774 | 31484 ft | 414 kts | 277° |
| 2026-04-19 04:15 | 47.70296 | -113.50072 | 30621 ft | 420 kts | 277° |
| 2026-04-19 04:15 | 47.70389 | -113.54438 | 29644 ft | 426 kts | 277° |
| 2026-04-19 04:16 | 47.70482 | -113.58852 | 28638 ft | 430 kts | 276° |
| 2026-04-19 04:16 | 47.70575 | -113.63300 | 27646 ft | 433 kts | 276° |
| 2026-04-19 04:16 | 47.70665 | -113.67790 | 26645 ft | 437 kts | 275° |
| 2026-04-19 04:16 | 47.70753 | -113.72245 | 25702 ft | 439 kts | 275° |
| 2026-04-19 04:17 | 47.70839 | -113.76766 | 25030 ft | 436 kts | 275° |
| 2026-04-19 04:17 | 47.70923 | -113.81238 | 24472 ft | 430 kts | 275° |
| 2026-04-19 04:17 | 47.71006 | -113.85687 | 24307 ft | 433 kts | 275° |
| 2026-04-19 04:17 | 47.71088 | -113.90148 | 24212 ft | 430 kts | 275° |
| 2026-04-19 04:18 | 47.71169 | -113.94584 | 24165 ft | 430 kts | 275° |
| 2026-04-19 04:18 | 47.71248 | -113.99020 | 24167 ft | 430 kts | 275° |
| 2026-04-19 04:18 | 47.71326 | -114.03452 | 24153 ft | 430 kts | 274° |
| 2026-04-19 04:18 | 47.71425 | -114.07895 | 24156 ft | 429 kts | 278° |
| 2026-04-19 04:19 | 47.72062 | -114.12183 | 24160 ft | 421 kts | 293° |
| 2026-04-19 04:19 | 47.73324 | -114.15994 | 24090 ft | 402 kts | 303° |
| 2026-04-19 04:19 | 47.74968 | -114.19141 | 23907 ft | 380 kts | 315° |
| 2026-04-19 04:19 | 47.76856 | -114.21869 | 23246 ft | 370 kts | 316° |
| 2026-04-19 04:20 | 47.78723 | -114.24488 | 22309 ft | 369 kts | 316° |
| 2026-04-19 04:20 | 47.80591 | -114.27103 | 21396 ft | 368 kts | 316° |
| 2026-04-19 04:20 | 47.82440 | -114.29711 | 20540 ft | 366 kts | 316° |
| 2026-04-19 04:20 | 47.84271 | -114.32316 | 19751 ft | 362 kts | 315° |
| 2026-04-19 04:21 | 47.86080 | -114.34904 | 18991 ft | 359 kts | 315° |
| 2026-04-19 04:21 | 47.87846 | -114.37436 | 18292 ft | 355 kts | 315° |
| 2026-04-19 04:21 | 47.89610 | -114.39979 | 17483 ft | 351 kts | 314° |
| 2026-04-19 04:21 | 47.91354 | -114.42498 | 16710 ft | 347 kts | 314° |
| 2026-04-19 04:22 | 47.93084 | -114.44995 | 15931 ft | 344 kts | 314° |
| 2026-04-19 04:22 | 47.94814 | -114.47494 | 14820 ft | 350 kts | 314° |
| 2026-04-19 04:22 | 47.96585 | -114.50057 | 13667 ft | 357 kts | 314° |
| 2026-04-19 04:22 | 47.98377 | -114.52649 | 12505 ft | 360 kts | 314° |
| 2026-04-19 04:23 | 48.00401 | -114.54835 | 11438 ft | 363 kts | 334° |
| 2026-04-19 04:23 | 48.02879 | -114.55553 | 10530 ft | 367 kts | 1° |
| 2026-04-19 04:23 | 48.05277 | -114.54514 | 10219 ft | 354 kts | 28° |
| 2026-04-19 04:23 | 48.07119 | -114.52227 | 10090 ft | 336 kts | 43° |
| 2026-04-19 04:24 | 48.08702 | -114.49796 | 10063 ft | 313 kts | 42° |
| 2026-04-19 04:24 | 48.10223 | -114.47650 | 9881 ft | 293 kts | 39° |
| 2026-04-19 04:24 | 48.11746 | -114.45768 | 9451 ft | 279 kts | 34° |
| 2026-04-19 04:24 | 48.13312 | -114.44089 | 8786 ft | 275 kts | 32° |
| 2026-04-19 04:25 | 48.14874 | -114.42477 | 8113 ft | 272 kts | 32° |
| 2026-04-19 04:25 | 48.16399 | -114.40891 | 7358 ft | 270 kts | 33° |
| 2026-04-19 04:25 | 48.17921 | -114.39295 | 6508 ft | 263 kts | 34° |
| 2026-04-19 04:25 | 48.19371 | -114.37773 | 5851 ft | 247 kts | 34° |
| 2026-04-19 04:26 | 48.20738 | -114.36340 | 5283 ft | 226 kts | 35° |
| 2026-04-19 04:26 | 48.21962 | -114.35059 | 4942 ft | 202 kts | 35° |
| 2026-04-19 04:26 | 48.23056 | -114.33912 | 4630 ft | 182 kts | 35° |
| 2026-04-19 04:26 | 48.24039 | -114.32881 | 4360 ft | 166 kts | 35° |
| 2026-04-19 04:27 | 48.24970 | -114.31907 | 4148 ft | 159 kts | 35° |
| 2026-04-19 04:27 | 48.25857 | -114.30948 | 4089 ft | 160 kts | 36° |
| 2026-04-19 04:27 | 48.26776 | -114.29986 | 3944 ft | 161 kts | 33° |
| 2026-04-19 04:27 | 48.27706 | -114.29030 | 3695 ft | 163 kts | 34° |
| 2026-04-19 04:28 | 48.28626 | -114.28067 | 3383 ft | 160 kts | 33° |
| 2026-04-19 04:28 | 48.29525 | -114.27134 | 3107 ft | 155 kts | 34° |
| 2026-04-19 04:28 | 48.30400 | -114.26223 | 2974 ft | 146 kts | 34° |
| 2026-04-19 04:28 | 48.30968 | -114.25636 | 2971 ft | 64 kts | 34° |
| 2026-04-19 04:29 | 48.31133 | -114.25409 | 2973 ft | 13 kts | 104° |
| 2026-04-19 04:29 | 48.31059 | -114.25338 | 2974 ft | 13 kts | 160° |
| 2026-04-19 04:29 | 48.30974 | -114.25312 | 2974 ft | 13 kts | 175° |
| 2026-04-19 04:29 | 48.30894 | -114.25351 | 2974 ft | 12 kts | 211° |
| 2026-04-19 04:30 | 48.30824 | -114.25420 | 2974 ft | 12 kts | 214° |
| 2026-04-19 04:30 | 48.30787 | -114.25458 | 2974 ft | 0 kts | 212° |
| 2026-04-19 04:30 | 48.30755 | -114.25376 | 2974 ft | 0 kts | 124° |